createdAt,value
2022-10-06T00:01:41.023Z,5.33
2022-10-06T00:06:42.728Z,5.07
2022-10-06T00:11:44.374Z,6.60
2022-10-06T00:16:46.014Z,6.53
2022-10-06T00:21:47.686Z,4.00
2022-10-06T00:26:49.375Z,8.23
2022-10-06T00:31:51.034Z,5.80
2022-10-06T00:36:52.657Z,6.00
2022-10-06T00:41:54.347Z,6.07
2022-10-06T00:46:56.340Z,7.97
2022-10-06T00:52:07.113Z,5.87
2022-10-06T00:57:08.771Z,6.13
2022-10-06T01:02:14.835Z,11.20
2022-10-06T01:07:17.406Z,3.00
2022-10-06T01:12:19.089Z,3.87
2022-10-06T01:17:29.550Z,2.10
2022-10-06T01:22:31.069Z,3.00
2022-10-06T01:27:32.970Z,4.70
2022-10-06T01:32:36.749Z,1.37
2022-10-06T01:37:39.517Z,1.37
2022-10-06T01:42:41.234Z,0.67
2022-10-06T01:47:43.247Z,0.60
2022-10-06T01:52:45.237Z,3.90
2022-10-06T01:57:46.914Z,1.97
2022-10-06T02:02:50.668Z,1.20
2022-10-06T02:07:52.321Z,1.20
2022-10-06T02:12:54.283Z,0.73
2022-10-06T02:17:57.395Z,2.33
2022-10-06T02:23:01.825Z,2.83
2022-10-06T02:28:03.564Z,3.53
2022-10-06T02:33:07.539Z,1.43
2022-10-06T02:38:09.432Z,2.73
2022-10-06T02:43:11.757Z,1.67
2022-10-06T02:48:13.574Z,1.33
2022-10-06T02:53:15.310Z,8.30
2022-10-06T02:58:17.032Z,2.77
2022-10-06T03:03:18.859Z,3.10
2022-10-06T03:08:20.577Z,2.47
2022-10-06T03:13:22.321Z,1.40
2022-10-06T03:18:24.884Z,3.97
2022-10-06T03:23:26.742Z,2.40
2022-10-06T03:28:28.988Z,5.17
2022-10-06T03:33:31.672Z,1.87
2022-10-06T03:38:34.135Z,3.33
2022-10-06T03:43:36.624Z,1.67
2022-10-06T03:48:38.432Z,2.57
2022-10-06T03:53:45.027Z,3.10
2022-10-06T03:58:49.986Z,3.43
2022-10-06T04:03:54.104Z,4.80
2022-10-06T04:08:55.943Z,4.63
2022-10-06T04:14:00.449Z,6.77
2022-10-06T04:19:07.482Z,6.37
2022-10-06T04:24:10.586Z,6.30
2022-10-06T04:29:14.823Z,8.80
2022-10-06T04:34:17.360Z,7.23
2022-10-06T04:39:20.490Z,10.43
2022-10-06T04:44:22.501Z,3.70
2022-10-06T04:49:24.862Z,7.10
2022-10-06T04:54:33.412Z,9.90
2022-10-06T04:59:54.629Z,5.30
2022-10-06T05:04:58.195Z,9.50
2022-10-06T05:10:00.386Z,4.90
2022-10-06T05:15:02.237Z,6.67
2022-10-06T05:20:04.449Z,9.80
2022-10-06T05:25:06.653Z,9.13
2022-10-06T05:30:09.855Z,8.00
2022-10-06T05:35:12.332Z,8.77
2022-10-06T05:40:14.189Z,7.27
2022-10-06T05:45:15.976Z,13.27
2022-10-06T05:50:19.522Z,8.37
2022-10-06T05:55:22.819Z,9.43
2022-10-06T06:00:24.640Z,9.00
2022-10-06T06:05:26.462Z,10.93
2022-10-06T06:10:28.265Z,12.63
2022-10-06T06:15:48.463Z,13.67
2022-10-06T06:21:00.981Z,13.63
2022-10-06T06:26:04.816Z,10.17
2022-10-06T06:31:20.148Z,9.73
2022-10-06T06:36:29.790Z,10.50
2022-10-06T06:41:32.860Z,13.23
2022-10-06T06:46:43.031Z,12.27
2022-10-06T06:51:49.884Z,14.23
2022-10-06T06:56:55.210Z,12.47
2022-10-06T07:01:57.639Z,12.73
2022-10-06T07:07:00.410Z,15.97
2022-10-06T07:12:11.378Z,14.30
2022-10-06T07:17:33.932Z,13.27
2022-10-06T07:22:54.366Z,9.20
2022-10-06T07:27:57.215Z,14.63
2022-10-06T07:33:05.069Z,13.03
2022-10-06T07:38:08.594Z,18.30
2022-10-06T07:43:22.977Z,13.57
2022-10-06T07:48:26.161Z,5.63
2022-10-06T07:53:37.540Z,10.50
2022-10-06T07:58:51.949Z,13.90
2022-10-06T08:03:53.636Z,13.20
2022-10-06T08:08:56.485Z,12.37
2022-10-06T08:13:58.349Z,11.10
2022-10-06T08:19:00.232Z,10.40
2022-10-06T08:24:02.080Z,12.87
2022-10-06T08:29:03.833Z,8.70
2022-10-06T08:34:11.836Z,10.83
2022-10-06T08:39:13.862Z,12.10
2022-10-06T08:44:19.146Z,13.17
2022-10-06T08:49:22.035Z,13.70
2022-10-06T08:54:29.850Z,13.93
2022-10-06T08:59:37.644Z,11.23
2022-10-06T09:04:39.281Z,11.37
2022-10-06T09:09:46.801Z,9.87
2022-10-06T09:15:04.530Z,8.60
2022-10-06T09:20:19.214Z,10.20
2022-10-06T09:25:22.135Z,11.53
2022-10-06T09:30:24.082Z,8.97
2022-10-06T09:35:27.456Z,10.70
2022-10-06T09:40:54.530Z,10.30
2022-10-06T09:45:57.312Z,11.93
2022-10-06T09:51:17.834Z,10.77
2022-10-06T09:56:19.760Z,12.67
2022-10-06T10:01:23.961Z,8.13
2022-10-06T10:06:35.078Z,7.90
2022-10-06T10:11:55.129Z,12.00
2022-10-06T10:16:56.802Z,9.50
2022-10-06T10:21:59.661Z,8.33
2022-10-06T10:27:26.303Z,5.37
2022-10-06T10:32:36.134Z,9.70
2022-10-06T10:37:42.943Z,5.93
2022-10-06T10:42:51.715Z,7.17
2022-10-06T10:47:53.498Z,10.90
2022-10-06T10:53:02.073Z,9.73
2022-10-06T10:58:33.782Z,7.63
2022-10-06T11:03:35.461Z,14.00
2022-10-06T11:08:43.116Z,8.93
2022-10-06T11:13:48.839Z,7.13
2022-10-06T11:19:09.257Z,14.37
2022-10-06T11:24:15.482Z,7.93
2022-10-06T11:29:54.425Z,9.73
2022-10-06T11:34:56.236Z,11.07
2022-10-06T11:40:02.336Z,7.63
2022-10-06T11:45:15.160Z,7.13
2022-10-06T11:50:37.623Z,10.63
2022-10-06T11:55:39.374Z,6.90
2022-10-06T12:00:43.053Z,6.87
2022-10-06T12:06:00.210Z,6.63
2022-10-06T12:11:01.842Z,5.23
2022-10-06T12:22:06.500Z,6.70
2022-10-06T12:27:44.788Z,7.77
2022-10-06T12:32:57.368Z,4.77
2022-10-06T12:38:04.631Z,5.80
2022-10-06T12:43:12.464Z,6.73
2022-10-06T12:48:26.841Z,10.90
2022-10-06T12:53:32.755Z,5.77
2022-10-06T12:58:34.412Z,9.23
2022-10-06T13:03:36.035Z,6.07
2022-10-06T13:08:38.358Z,4.67
2022-10-06T13:13:52.717Z,11.50
2022-10-06T13:18:55.565Z,4.70
2022-10-06T13:23:57.250Z,7.50
2022-10-06T13:28:59.312Z,6.23
2022-10-06T13:34:11.437Z,7.83
2022-10-06T13:39:17.770Z,5.73
2022-10-06T13:44:19.244Z,15.10
2022-10-06T13:49:40.801Z,6.03
2022-10-06T13:54:53.298Z,7.43
2022-10-06T14:00:14.255Z,7.27
2022-10-06T14:05:29.784Z,10.07
2022-10-06T14:10:40.370Z,6.30
2022-10-06T14:15:49.341Z,8.63
2022-10-06T14:20:53.347Z,5.70
2022-10-06T14:25:54.998Z,7.33
2022-10-06T14:30:57.414Z,8.40
2022-10-06T14:35:59.113Z,7.60
2022-10-06T14:41:01.986Z,7.40
2022-10-06T14:46:06.410Z,10.07
2022-10-06T14:51:09.167Z,5.37
2022-10-06T14:56:13.798Z,6.13
2022-10-06T15:01:17.204Z,6.80
2022-10-06T15:06:37.682Z,5.57
2022-10-06T15:11:39.614Z,7.53
2022-10-06T15:16:42.411Z,8.77
2022-10-06T15:21:47.028Z,10.27
2022-10-06T15:27:07.403Z,9.23
2022-10-06T15:32:09.485Z,5.27
2022-10-06T15:37:11.155Z,8.77
2022-10-06T15:42:15.361Z,7.73
2022-10-06T15:47:17.176Z,13.97
2022-10-06T15:52:18.892Z,9.20
2022-10-06T15:57:21.565Z,11.33
2022-10-06T16:02:23.409Z,8.17
2022-10-06T16:07:25.152Z,9.87
2022-10-06T16:12:28.529Z,7.80
2022-10-06T16:17:30.411Z,7.23
2022-10-06T16:22:32.093Z,9.47
2022-10-06T16:27:35.211Z,9.60
2022-10-06T16:32:37.116Z,9.97
2022-10-06T16:37:38.975Z,14.33
2022-10-06T16:42:43.288Z,12.43
2022-10-06T16:47:45.041Z,9.40
2022-10-06T16:52:46.711Z,11.73
2022-10-06T16:57:48.460Z,8.40
2022-10-06T17:02:50.193Z,11.53
2022-10-06T17:07:54.536Z,13.10
2022-10-06T17:13:00.312Z,11.27
2022-10-06T17:18:02.088Z,12.87
2022-10-06T17:23:03.751Z,11.30
2022-10-06T17:28:05.955Z,16.80
2022-10-06T17:33:07.647Z,13.23
2022-10-06T17:38:09.635Z,13.57
2022-10-06T17:43:11.349Z,13.60
2022-10-06T17:48:14.199Z,14.23
2022-10-06T17:53:15.839Z,15.40
2022-10-06T17:58:18.842Z,17.53
2022-10-06T18:03:26.332Z,13.40
2022-10-06T18:08:28.066Z,14.00
2022-10-06T18:13:31.446Z,10.03
2022-10-06T18:18:33.315Z,13.40
2022-10-06T18:23:36.210Z,14.07
2022-10-06T18:28:39.124Z,18.80
2022-10-06T18:36:10.405Z,23.07
2022-10-06T18:39:03.896Z,22.23
2022-10-06T18:44:05.594Z,15.93
2022-10-06T18:49:12.437Z,23.13
2022-10-06T18:54:16.375Z,27.67
2022-10-06T18:59:19.867Z,36.77
2022-10-06T19:04:22.257Z,30.13
2022-10-06T19:09:24.527Z,21.73
2022-10-06T19:14:36.766Z,21.70
2022-10-06T19:19:38.403Z,19.23
2022-10-06T19:24:41.547Z,15.80
2022-10-06T19:29:45.987Z,21.37
2022-10-06T19:34:48.360Z,13.83
2022-10-06T19:39:50.157Z,12.90
2022-10-06T19:44:52.044Z,19.07
2022-10-06T19:50:00.818Z,21.47
2022-10-06T19:55:04.942Z,16.40
2022-10-06T20:00:07.266Z,21.77
2022-10-06T20:05:15.486Z,19.77
2022-10-06T20:10:17.154Z,17.70
2022-10-06T20:15:19.711Z,26.73
2022-10-06T20:20:21.325Z,13.57
2022-10-06T20:25:22.962Z,13.53
2022-10-06T20:30:24.719Z,11.77
2022-10-06T20:35:26.346Z,13.00
2022-10-06T20:40:42.640Z,15.70
2022-10-06T20:45:44.302Z,17.27
2022-10-06T20:50:46.020Z,17.33
2022-10-06T20:55:51.739Z,25.93
2022-10-06T21:00:53.605Z,12.37
2022-10-06T21:05:55.492Z,14.23
2022-10-06T21:10:58.199Z,13.90
2022-10-06T21:16:00.250Z,14.40
2022-10-06T21:21:04.934Z,13.33
2022-10-06T21:26:07.432Z,14.97
2022-10-06T21:31:12.497Z,15.53
2022-10-06T21:36:23.675Z,11.23
2022-10-06T21:41:31.527Z,13.63
2022-10-06T21:46:37.197Z,9.33
2022-10-06T21:51:39.250Z,23.83
2022-10-06T21:56:41.122Z,7.10
2022-10-06T22:01:44.285Z,12.13
2022-10-06T22:06:49.963Z,13.63
2022-10-06T22:11:51.890Z,14.23
2022-10-06T22:16:53.746Z,7.10
2022-10-06T22:21:55.535Z,8.07
2022-10-06T22:26:58.956Z,12.10
2022-10-06T22:32:00.808Z,12.17
2022-10-06T22:37:02.745Z,13.93
2022-10-06T22:42:04.566Z,14.07
2022-10-06T22:47:06.404Z,9.60
2022-10-06T22:52:08.220Z,14.37
2022-10-06T22:57:10.203Z,6.23
2022-10-06T23:02:12.039Z,10.93
2022-10-06T23:07:13.804Z,10.60
2022-10-06T23:12:15.614Z,8.50
2022-10-06T23:17:17.411Z,11.47
2022-10-06T23:22:19.186Z,11.60
2022-10-06T23:27:21.083Z,16.00
2022-10-06T23:32:22.863Z,12.40
2022-10-06T23:37:24.710Z,8.67
2022-10-06T23:42:26.497Z,8.53
2022-10-06T23:47:28.279Z,8.00
2022-10-06T23:52:30.057Z,11.43
2022-10-06T23:57:31.909Z,19.03
